createdAt,value
2018-11-26T00:00:14.812Z,840.06
2018-11-26T00:01:14.681Z,840.04
2018-11-26T00:02:14.543Z,840.00
2018-11-26T00:03:14.407Z,839.98
2018-11-26T00:04:14.276Z,840.00
2018-11-26T00:05:14.142Z,839.98
2018-11-26T00:06:14.008Z,839.96
2018-11-26T00:07:13.872Z,839.97
2018-11-26T00:08:13.744Z,839.96
2018-11-26T00:09:13.605Z,839.98
2018-11-26T00:10:13.472Z,839.93
2018-11-26T00:11:13.338Z,839.90
2018-11-26T00:12:13.203Z,839.85
2018-11-26T00:13:13.975Z,839.84
2018-11-26T00:14:12.934Z,839.85
2018-11-26T00:15:12.801Z,839.82
2018-11-26T00:16:12.667Z,839.83
2018-11-26T00:17:12.533Z,839.81
2018-11-26T00:18:12.400Z,839.80
2018-11-26T00:19:12.263Z,839.78
2018-11-26T00:20:12.132Z,839.79
2018-11-26T00:21:11.995Z,839.75
2018-11-26T00:22:11.862Z,839.74
2018-11-26T00:23:11.729Z,839.78
2018-11-26T00:24:11.595Z,839.81
2018-11-26T00:25:11.461Z,839.78
2018-11-26T00:26:11.332Z,839.76
2018-11-26T00:27:11.192Z,839.77
2018-11-26T00:28:11.068Z,839.75
2018-11-26T00:29:10.926Z,839.71
2018-11-26T00:30:10.792Z,839.70
2018-11-26T00:31:10.655Z,839.70
2018-11-26T00:32:10.522Z,839.68
2018-11-26T00:33:10.396Z,839.68
2018-11-26T00:34:10.259Z,839.66
2018-11-26T00:35:10.122Z,839.68
2018-11-26T00:36:09.988Z,839.66
2018-11-26T00:37:09.855Z,839.67
2018-11-26T00:38:09.721Z,839.66
2018-11-26T00:39:09.588Z,839.66
2018-11-26T00:40:09.454Z,839.66
2018-11-26T00:41:09.319Z,839.65
2018-11-26T00:42:09.189Z,839.61
2018-11-26T00:43:09.052Z,839.66
2018-11-26T00:44:08.918Z,839.66
2018-11-26T00:45:08.788Z,839.68
2018-11-26T00:46:08.652Z,839.65
2018-11-26T00:47:08.519Z,839.66
2018-11-26T00:48:08.384Z,839.64
2018-11-26T00:49:08.256Z,839.63
2018-11-26T00:50:08.118Z,839.66
2018-11-26T00:51:07.982Z,839.63
2018-11-26T00:52:07.849Z,839.63
2018-11-26T00:53:07.715Z,839.64
2018-11-26T00:54:07.582Z,839.61
2018-11-26T00:55:07.449Z,839.62
2018-11-26T00:56:07.315Z,839.64
2018-11-26T00:57:07.181Z,839.62
2018-11-26T00:58:07.048Z,839.62
2018-11-26T00:59:06.916Z,839.62
2018-11-26T01:00:06.778Z,839.59
2018-11-26T01:01:06.648Z,839.59
2018-11-26T01:02:06.514Z,839.60
2018-11-26T01:03:06.377Z,839.61
2018-11-26T01:04:06.243Z,839.61
2018-11-26T01:05:06.110Z,839.63
2018-11-26T01:06:05.977Z,839.63
2018-11-26T01:07:05.842Z,839.61
2018-11-26T01:08:05.710Z,839.62
2018-11-26T01:09:05.577Z,839.62
2018-11-26T01:10:05.441Z,839.59
2018-11-26T01:11:05.305Z,839.65
2018-11-26T01:12:05.987Z,839.66
2018-11-26T01:13:05.039Z,839.63
2018-11-26T01:14:04.907Z,839.65
2018-11-26T01:15:04.770Z,839.69
2018-11-26T01:16:04.636Z,839.70
2018-11-26T01:17:04.505Z,839.73
2018-11-26T01:18:04.369Z,839.73
2018-11-26T01:19:04.234Z,839.72
2018-11-26T01:20:04.111Z,839.72
2018-11-26T01:21:03.969Z,839.66
2018-11-26T01:22:03.840Z,839.67
2018-11-26T01:23:03.701Z,839.67
2018-11-26T01:24:03.569Z,839.67
2018-11-26T01:25:03.435Z,839.69
2018-11-26T01:26:03.301Z,839.63
2018-11-26T01:27:03.169Z,839.61
2018-11-26T01:28:03.037Z,839.60
2018-11-26T01:29:02.901Z,839.63
2018-11-26T01:30:02.768Z,839.63
2018-11-26T01:31:02.633Z,839.58
2018-11-26T01:32:02.500Z,839.61
2018-11-26T01:33:02.374Z,839.60
2018-11-26T01:34:02.234Z,839.62
2018-11-26T01:35:02.102Z,839.60
2018-11-26T01:36:01.967Z,839.59
2018-11-26T01:37:01.836Z,839.62
2018-11-26T01:38:01.702Z,839.59
2018-11-26T01:39:01.568Z,839.60
2018-11-26T01:40:01.437Z,839.59
2018-11-26T01:41:01.304Z,839.62
2018-11-26T01:42:01.169Z,839.62
2018-11-26T01:43:01.036Z,839.63
2018-11-26T01:44:00.900Z,839.62
2018-11-26T01:45:00.768Z,839.63
2018-11-26T01:46:00.636Z,839.54
2018-11-26T01:47:00.498Z,839.57
2018-11-26T01:48:00.366Z,839.62
2018-11-26T01:49:00.233Z,839.63
2018-11-26T01:50:00.104Z,839.58
2018-11-26T01:50:59.967Z,839.59
2018-11-26T01:51:59.831Z,839.58
2018-11-26T01:52:59.698Z,839.55
2018-11-26T01:53:59.566Z,839.49
2018-11-26T01:54:59.430Z,839.50
2018-11-26T01:55:59.298Z,839.48
2018-11-26T01:56:59.163Z,839.46
2018-11-26T01:57:59.030Z,839.47
2018-11-26T01:58:58.894Z,839.46
2018-11-26T01:59:58.763Z,839.45
2018-11-26T02:00:58.630Z,839.43
2018-11-26T02:01:58.496Z,839.40
2018-11-26T02:02:58.361Z,839.43
2018-11-26T02:03:58.227Z,839.45
2018-11-26T02:04:58.094Z,839.46
2018-11-26T02:05:57.962Z,839.45
2018-11-26T02:06:57.828Z,839.48
2018-11-26T02:07:57.697Z,839.45
2018-11-26T02:08:57.564Z,839.46
2018-11-26T02:09:57.427Z,839.45
2018-11-26T02:10:57.294Z,839.37
2018-11-26T02:11:57.160Z,839.36
2018-11-26T02:12:57.028Z,839.36
2018-11-26T02:13:56.893Z,839.35
2018-11-26T02:14:56.759Z,839.33
2018-11-26T02:15:56.627Z,839.28
2018-11-26T02:16:56.494Z,839.28
2018-11-26T02:17:56.360Z,839.28
2018-11-26T02:18:56.226Z,839.24
2018-11-26T02:19:56.092Z,839.24
2018-11-26T02:20:55.960Z,839.24
2018-11-26T02:21:55.826Z,839.27
2018-11-26T02:22:55.691Z,839.24
2018-11-26T02:23:55.558Z,839.21
2018-11-26T02:24:55.427Z,839.24
2018-11-26T02:25:55.292Z,839.26
2018-11-26T02:26:55.158Z,839.24
2018-11-26T02:27:55.024Z,839.25
2018-11-26T02:28:54.891Z,839.23
2018-11-26T02:29:54.756Z,839.24
2018-11-26T02:30:54.621Z,839.16
2018-11-26T02:31:54.488Z,839.18
2018-11-26T02:32:54.355Z,839.20
2018-11-26T02:33:54.223Z,839.22
2018-11-26T02:34:54.088Z,839.25
2018-11-26T02:35:53.953Z,839.26
2018-11-26T02:36:53.819Z,839.26
2018-11-26T02:37:53.687Z,839.27
2018-11-26T02:38:53.552Z,839.27
2018-11-26T02:39:53.423Z,839.29
2018-11-26T02:40:53.286Z,839.31
2018-11-26T02:41:53.154Z,839.31
2018-11-26T02:42:53.018Z,839.32
2018-11-26T02:43:52.888Z,839.33
2018-11-26T02:44:52.750Z,839.27
2018-11-26T02:45:52.618Z,839.30
2018-11-26T02:46:52.485Z,839.26
2018-11-26T02:47:52.351Z,839.27
2018-11-26T02:48:52.216Z,839.27
2018-11-26T02:49:52.083Z,839.28
2018-11-26T02:50:51.948Z,839.26
2018-11-26T02:51:51.815Z,839.26
2018-11-26T02:52:51.679Z,839.26
2018-11-26T02:53:51.548Z,839.23
2018-11-26T02:54:52.371Z,839.21
2018-11-26T02:55:51.277Z,839.21
2018-11-26T02:56:51.147Z,839.21
2018-11-26T02:57:51.012Z,839.20
2018-11-26T02:58:50.878Z,839.19
2018-11-26T02:59:50.744Z,839.19
2018-11-26T03:00:50.609Z,839.19
2018-11-26T03:01:50.476Z,839.20
2018-11-26T03:02:50.340Z,839.19
2018-11-26T03:03:50.208Z,839.19
2018-11-26T03:04:50.071Z,839.18
2018-11-26T03:05:49.938Z,839.20
2018-11-26T03:06:49.802Z,839.19
2018-11-26T03:07:49.673Z,839.18
2018-11-26T03:08:49.535Z,839.16
2018-11-26T03:09:49.408Z,839.16
2018-11-26T03:10:49.267Z,839.14
2018-11-26T03:11:49.132Z,839.14
2018-11-26T03:12:48.999Z,839.10
2018-11-26T03:13:48.865Z,839.13
2018-11-26T03:14:48.729Z,839.06
2018-11-26T03:15:48.595Z,839.11
2018-11-26T03:16:48.465Z,839.07
2018-11-26T03:17:48.328Z,839.05
2018-11-26T03:18:48.192Z,839.05
2018-11-26T03:19:48.060Z,839.04
2018-11-26T03:20:47.933Z,839.04
2018-11-26T03:21:47.795Z,839.01
2018-11-26T03:22:47.656Z,839.00
2018-11-26T03:23:47.522Z,838.99
2018-11-26T03:24:47.393Z,838.98
2018-11-26T03:25:47.257Z,838.98
2018-11-26T03:26:47.125Z,838.96
2018-11-26T03:27:46.988Z,838.99
2018-11-26T03:28:46.860Z,839.02
2018-11-26T03:29:46.720Z,839.07
2018-11-26T03:30:46.603Z,839.08
2018-11-26T03:31:46.456Z,839.05
2018-11-26T03:32:46.321Z,839.10
2018-11-26T03:33:46.187Z,839.08
2018-11-26T03:34:46.052Z,839.10
2018-11-26T03:35:45.920Z,839.12
2018-11-26T03:36:45.785Z,839.12
2018-11-26T03:37:45.651Z,839.11
2018-11-26T03:38:45.517Z,839.10
2018-11-26T03:39:45.383Z,839.12
2018-11-26T03:40:45.248Z,839.12
2018-11-26T03:41:45.114Z,839.20
2018-11-26T03:42:44.979Z,839.22
2018-11-26T03:43:44.847Z,839.20
2018-11-26T03:44:44.712Z,839.21
2018-11-26T03:45:44.578Z,839.24
2018-11-26T03:46:44.443Z,839.22
2018-11-26T03:47:44.309Z,839.23
2018-11-26T03:48:44.178Z,839.28
2018-11-26T03:49:44.042Z,839.27
2018-11-26T03:50:43.906Z,839.33
2018-11-26T03:51:43.773Z,839.33
2018-11-26T03:52:43.639Z,839.32
2018-11-26T03:53:43.504Z,839.35
2018-11-26T03:54:43.369Z,839.37
2018-11-26T03:55:43.236Z,839.38
2018-11-26T03:56:43.100Z,839.33
2018-11-26T03:57:42.970Z,839.36
2018-11-26T03:58:42.833Z,839.36
2018-11-26T03:59:42.701Z,839.38
2018-11-26T04:00:42.565Z,839.40
2018-11-26T04:01:42.430Z,839.35
2018-11-26T04:02:42.295Z,839.39
2018-11-26T04:03:42.160Z,839.39
2018-11-26T04:04:42.026Z,839.42
2018-11-26T04:05:41.891Z,839.44
2018-11-26T04:06:41.757Z,839.43
2018-11-26T04:07:41.621Z,839.45
2018-11-26T04:08:41.487Z,839.43
2018-11-26T04:09:41.357Z,839.46
2018-11-26T04:10:41.219Z,839.42
2018-11-26T04:11:41.086Z,839.45
2018-11-26T04:12:40.956Z,839.43
2018-11-26T04:13:40.817Z,839.44
2018-11-26T04:14:40.682Z,839.43
2018-11-26T04:15:40.548Z,839.41
2018-11-26T04:16:40.415Z,839.40
2018-11-26T04:17:40.280Z,839.42
2018-11-26T04:18:40.146Z,839.44
2018-11-26T04:19:40.013Z,839.43
2018-11-26T04:20:39.876Z,839.42
2018-11-26T04:21:39.742Z,839.42
2018-11-26T04:22:39.608Z,839.44
2018-11-26T04:23:39.479Z,839.41
2018-11-26T04:24:39.350Z,839.41
2018-11-26T04:25:39.206Z,839.42
2018-11-26T04:26:39.074Z,839.40
2018-11-26T04:27:38.939Z,839.41
2018-11-26T04:28:38.805Z,839.40
2018-11-26T04:29:38.669Z,839.40
2018-11-26T04:30:38.538Z,839.45
2018-11-26T04:31:38.403Z,839.41
2018-11-26T04:32:38.266Z,839.43
2018-11-26T04:33:38.135Z,839.40
2018-11-26T04:34:38.001Z,839.42
2018-11-26T04:35:37.865Z,839.41
2018-11-26T04:36:37.730Z,839.46
2018-11-26T04:37:37.596Z,839.45
2018-11-26T04:38:37.461Z,839.41
2018-11-26T04:39:37.333Z,839.43
2018-11-26T04:40:37.201Z,839.42
2018-11-26T04:41:37.057Z,839.41
2018-11-26T04:42:36.926Z,839.44
2018-11-26T04:43:36.790Z,839.38
2018-11-26T04:44:36.655Z,839.39
2018-11-26T04:45:36.528Z,839.39
2018-11-26T04:46:36.385Z,839.40
2018-11-26T04:47:36.250Z,839.45
2018-11-26T04:48:36.119Z,839.45
2018-11-26T04:49:35.982Z,839.45
2018-11-26T04:50:35.846Z,839.48
2018-11-26T04:51:35.714Z,839.50
2018-11-26T04:52:35.585Z,839.48
2018-11-26T04:53:35.448Z,839.52
2018-11-26T04:54:35.314Z,839.48
2018-11-26T04:55:35.175Z,839.49
2018-11-26T04:56:35.049Z,839.49
2018-11-26T04:57:35.606Z,839.49
2018-11-26T04:58:34.770Z,839.50
2018-11-26T04:59:34.639Z,839.51
2018-11-26T05:00:34.502Z,839.49
2018-11-26T05:01:34.368Z,839.47
2018-11-26T05:02:34.233Z,839.49
2018-11-26T05:03:34.100Z,839.51
2018-11-26T05:04:33.964Z,839.54
2018-11-26T05:05:33.831Z,839.49
2018-11-26T05:06:33.694Z,839.54
2018-11-26T05:07:33.567Z,839.54
2018-11-26T05:08:33.427Z,839.51
2018-11-26T05:09:33.292Z,839.54
2018-11-26T05:10:33.154Z,839.53
2018-11-26T05:11:33.034Z,839.51
2018-11-26T05:12:32.887Z,839.48
2018-11-26T05:13:32.750Z,839.48
2018-11-26T05:14:32.618Z,839.50
2018-11-26T05:15:32.483Z,839.49
2018-11-26T05:16:32.346Z,839.47
2018-11-26T05:17:32.211Z,839.49
2018-11-26T05:18:32.078Z,839.47
2018-11-26T05:19:31.942Z,839.50
2018-11-26T05:20:31.818Z,839.51
2018-11-26T05:21:31.674Z,839.51
2018-11-26T05:22:31.539Z,839.49
2018-11-26T05:23:31.469Z,839.48
2018-11-26T05:24:31.268Z,839.48
2018-11-26T05:25:31.133Z,839.50
2018-11-26T05:26:30.998Z,839.50
2018-11-26T05:27:30.862Z,839.54
2018-11-26T05:28:30.736Z,839.54
2018-11-26T05:29:30.593Z,839.56
2018-11-26T05:30:30.458Z,839.59
2018-11-26T05:31:30.328Z,839.63
2018-11-26T05:32:30.188Z,839.65
2018-11-26T05:33:30.054Z,839.66
2018-11-26T05:34:29.923Z,839.69
2018-11-26T05:35:29.784Z,839.70
2018-11-26T05:36:29.647Z,839.71
2018-11-26T05:37:29.514Z,839.72
2018-11-26T05:38:29.377Z,839.75
2018-11-26T05:39:29.243Z,839.75
2018-11-26T05:40:29.109Z,839.74
2018-11-26T05:41:28.972Z,839.71
2018-11-26T05:42:28.920Z,839.68
2018-11-26T05:43:28.703Z,839.70
2018-11-26T05:44:28.565Z,839.69
2018-11-26T05:45:28.430Z,839.67
2018-11-26T05:46:28.296Z,839.65
2018-11-26T05:47:28.160Z,839.67
2018-11-26T05:48:28.028Z,839.67
2018-11-26T05:49:27.891Z,839.66
2018-11-26T05:50:27.756Z,839.62
2018-11-26T05:51:29.514Z,839.67
2018-11-26T05:52:27.486Z,839.63
2018-11-26T05:53:27.350Z,839.66
2018-11-26T05:54:27.214Z,839.63
2018-11-26T05:55:27.080Z,839.65
2018-11-26T05:56:26.944Z,839.67
2018-11-26T05:57:26.810Z,839.68
2018-11-26T05:58:26.674Z,839.68
2018-11-26T05:59:26.541Z,839.70
2018-11-26T06:00:26.408Z,839.70
2018-11-26T06:01:26.308Z,839.70
2018-11-26T06:02:26.139Z,839.74
2018-11-26T06:03:26.001Z,839.72
2018-11-26T06:04:25.865Z,839.73
2018-11-26T06:05:25.731Z,839.75
2018-11-26T06:06:25.593Z,839.78
2018-11-26T06:07:25.460Z,839.77
2018-11-26T06:08:25.323Z,839.79
2018-11-26T06:09:25.192Z,839.79
2018-11-26T06:10:25.054Z,839.82
2018-11-26T06:11:24.918Z,839.83
2018-11-26T06:12:24.783Z,839.83
2018-11-26T06:13:24.648Z,839.85
2018-11-26T06:14:24.512Z,839.86
2018-11-26T06:15:24.380Z,839.84
2018-11-26T06:16:24.242Z,839.84
2018-11-26T06:17:24.107Z,839.90
2018-11-26T06:18:23.970Z,839.87
2018-11-26T06:19:23.840Z,839.93
2018-11-26T06:20:23.700Z,839.97
2018-11-26T06:21:23.565Z,839.94
2018-11-26T06:22:23.430Z,839.94
2018-11-26T06:23:23.293Z,839.93
2018-11-26T06:24:23.159Z,839.92
2018-11-26T06:25:23.028Z,839.96
2018-11-26T06:26:22.889Z,839.98
2018-11-26T06:27:22.754Z,840.01
2018-11-26T06:28:22.622Z,839.99
2018-11-26T06:29:22.488Z,839.99
2018-11-26T06:30:22.352Z,839.96
2018-11-26T06:31:22.217Z,840.01
2018-11-26T06:32:22.078Z,839.96
2018-11-26T06:33:21.943Z,840.00
2018-11-26T06:34:21.810Z,839.99
2018-11-26T06:35:21.673Z,840.00
2018-11-26T06:36:21.541Z,840.03
2018-11-26T06:37:21.403Z,839.99
2018-11-26T06:38:21.267Z,839.97
2018-11-26T06:39:21.131Z,840.00
2018-11-26T06:40:20.997Z,839.99
2018-11-26T06:41:20.863Z,840.02
2018-11-26T06:42:20.726Z,840.00
2018-11-26T06:43:20.593Z,840.01
2018-11-26T06:44:20.455Z,839.99
2018-11-26T06:45:20.321Z,840.04
2018-11-26T06:46:20.183Z,840.01
2018-11-26T06:47:20.050Z,840.01
2018-11-26T06:48:19.916Z,839.98
2018-11-26T06:49:19.778Z,839.99
2018-11-26T06:50:19.651Z,839.99
2018-11-26T06:51:19.509Z,840.02
2018-11-26T06:52:19.374Z,840.02
2018-11-26T06:53:19.237Z,840.01
2018-11-26T06:54:19.108Z,840.06
2018-11-26T06:55:18.967Z,840.10
2018-11-26T06:56:18.833Z,840.08
2018-11-26T06:57:18.697Z,840.05
2018-11-26T06:58:18.560Z,840.07
2018-11-26T06:59:18.425Z,840.06
2018-11-26T07:00:18.348Z,840.10
2018-11-26T07:01:18.154Z,840.10
2018-11-26T07:02:18.017Z,840.10
2018-11-26T07:03:17.885Z,840.07
2018-11-26T07:04:17.747Z,840.11
2018-11-26T07:05:17.611Z,840.12
2018-11-26T07:06:17.476Z,840.11
2018-11-26T07:07:17.341Z,840.09
2018-11-26T07:08:17.207Z,840.11
2018-11-26T07:09:17.070Z,840.15
2018-11-26T07:10:16.934Z,840.15
2018-11-26T07:11:16.799Z,840.15
2018-11-26T07:12:16.664Z,840.14
2018-11-26T07:13:16.527Z,840.17
2018-11-26T07:14:16.391Z,840.16
2018-11-26T07:15:16.255Z,840.16
2018-11-26T07:16:16.120Z,840.13
2018-11-26T07:17:15.984Z,840.15
2018-11-26T07:18:15.848Z,840.16
2018-11-26T07:19:15.714Z,840.14
2018-11-26T07:20:15.581Z,840.14
2018-11-26T07:21:15.444Z,840.12
2018-11-26T07:22:15.307Z,840.14
2018-11-26T07:23:15.173Z,840.16
2018-11-26T07:24:15.038Z,840.17
2018-11-26T07:25:14.901Z,840.16
2018-11-26T07:26:14.766Z,840.16
2018-11-26T07:27:15.310Z,840.18
2018-11-26T07:28:14.497Z,840.20
2018-11-26T07:29:14.362Z,840.20
2018-11-26T07:30:14.224Z,840.21
2018-11-26T07:31:14.088Z,840.23
2018-11-26T07:32:13.954Z,840.21
2018-11-26T07:33:13.819Z,840.28
2018-11-26T07:34:13.683Z,840.29
2018-11-26T07:35:13.547Z,840.34
2018-11-26T07:36:13.418Z,840.32
2018-11-26T07:37:13.280Z,840.30
2018-11-26T07:38:13.141Z,840.28
2018-11-26T07:39:13.011Z,840.29
2018-11-26T07:40:12.881Z,840.26
2018-11-26T07:41:12.736Z,840.27
2018-11-26T07:42:12.605Z,840.25
2018-11-26T07:43:12.464Z,840.23
2018-11-26T07:44:12.331Z,840.22
2018-11-26T07:45:12.194Z,840.22
2018-11-26T07:46:12.059Z,840.20
2018-11-26T07:47:11.925Z,840.15
2018-11-26T07:48:11.793Z,840.18
2018-11-26T07:49:11.655Z,840.19
2018-11-26T07:50:11.519Z,840.17
2018-11-26T07:51:11.383Z,840.20
2018-11-26T07:52:11.253Z,840.24
2018-11-26T07:53:11.114Z,840.21
2018-11-26T07:54:10.977Z,840.23
2018-11-26T07:55:10.846Z,840.24
2018-11-26T07:56:10.709Z,840.28
2018-11-26T07:57:10.577Z,840.28
2018-11-26T07:58:10.439Z,840.30
2018-11-26T07:59:10.303Z,840.29
2018-11-26T08:00:10.171Z,840.30
2018-11-26T08:01:10.032Z,840.31
2018-11-26T08:02:09.897Z,840.29
2018-11-26T08:03:09.761Z,840.28
2018-11-26T08:04:09.631Z,840.34
2018-11-26T08:05:09.498Z,840.33
2018-11-26T08:06:09.359Z,840.35
2018-11-26T08:07:09.222Z,840.34
2018-11-26T08:08:09.085Z,840.40
2018-11-26T08:09:08.954Z,840.37
2018-11-26T08:10:08.815Z,840.42
2018-11-26T08:11:08.680Z,840.41
2018-11-26T08:12:08.544Z,840.41
2018-11-26T08:13:08.411Z,840.42
2018-11-26T08:14:08.276Z,840.44
2018-11-26T08:15:08.142Z,840.41
2018-11-26T08:16:08.006Z,840.41
2018-11-26T08:17:07.874Z,840.45
2018-11-26T08:18:07.735Z,840.45
2018-11-26T08:19:07.601Z,840.49
2018-11-26T08:20:07.466Z,840.51
2018-11-26T08:21:07.331Z,840.50
2018-11-26T08:22:07.194Z,840.47
2018-11-26T08:23:07.058Z,840.47
2018-11-26T08:24:06.924Z,840.44
2018-11-26T08:25:06.790Z,840.43
2018-11-26T08:26:06.652Z,840.39
2018-11-26T08:27:06.521Z,840.43
2018-11-26T08:28:06.381Z,840.45
2018-11-26T08:29:06.247Z,840.40
2018-11-26T08:30:06.116Z,840.38
2018-11-26T08:31:05.978Z,840.39
2018-11-26T08:32:05.844Z,840.40
2018-11-26T08:33:05.707Z,840.39
2018-11-26T08:34:05.576Z,840.38
2018-11-26T08:35:05.435Z,840.38
2018-11-26T08:36:05.303Z,840.41
2018-11-26T08:37:05.166Z,840.41
2018-11-26T08:38:05.150Z,840.39
2018-11-26T08:39:04.918Z,840.37
2018-11-26T08:40:04.761Z,840.40
2018-11-26T08:41:04.629Z,840.34
2018-11-26T08:42:04.497Z,840.39
2018-11-26T08:43:04.357Z,840.38
2018-11-26T08:44:09.338Z,840.40
2018-11-26T08:45:04.086Z,840.46
2018-11-26T08:46:03.954Z,840.45
2018-11-26T08:47:03.818Z,840.43
2018-11-26T08:48:03.685Z,840.46
2018-11-26T08:49:03.548Z,840.46
2018-11-26T08:50:03.413Z,840.42
2018-11-26T08:51:03.280Z,840.45
2018-11-26T08:52:03.144Z,840.44
2018-11-26T08:53:03.009Z,840.43
2018-11-26T08:54:02.874Z,840.43
2018-11-26T08:55:02.745Z,840.42
2018-11-26T08:56:02.603Z,840.44
2018-11-26T08:57:02.496Z,840.42
2018-11-26T08:58:02.355Z,840.44
2018-11-26T08:59:02.199Z,840.45
2018-11-26T09:00:02.065Z,840.44
2018-11-26T09:01:01.940Z,840.45
2018-11-26T09:02:01.794Z,840.49
2018-11-26T09:03:01.672Z,840.46
2018-11-26T09:04:01.530Z,840.46
2018-11-26T09:05:01.394Z,840.44
2018-11-26T09:06:01.260Z,840.49
2018-11-26T09:07:01.122Z,840.41
2018-11-26T09:08:00.988Z,840.44
2018-11-26T09:09:00.853Z,840.41
2018-11-26T09:10:00.718Z,840.42
2018-11-26T09:11:00.587Z,840.43
2018-11-26T09:12:00.451Z,840.40
2018-11-26T09:13:00.318Z,840.39
2018-11-26T09:14:00.185Z,840.41
2018-11-26T09:15:00.060Z,840.42
2018-11-26T09:15:59.915Z,840.40
2018-11-26T09:16:59.783Z,840.40
2018-11-26T09:17:59.648Z,840.44
2018-11-26T09:18:59.513Z,840.42
2018-11-26T09:19:59.380Z,840.40
2018-11-26T09:20:59.247Z,840.38
2018-11-26T09:21:59.117Z,840.37
2018-11-26T09:22:58.978Z,840.39
2018-11-26T09:23:58.849Z,840.41
2018-11-26T09:24:58.715Z,840.39
2018-11-26T09:25:58.576Z,840.38
2018-11-26T09:26:58.445Z,840.38
2018-11-26T09:27:58.312Z,840.39
2018-11-26T09:28:58.181Z,840.43
2018-11-26T09:29:58.045Z,840.45
2018-11-26T09:30:57.911Z,840.42
2018-11-26T09:31:57.778Z,840.45
2018-11-26T09:32:57.645Z,840.43
2018-11-26T09:33:57.513Z,840.40
2018-11-26T09:34:57.380Z,840.40
2018-11-26T09:35:57.250Z,840.42
2018-11-26T09:36:57.113Z,840.43
2018-11-26T09:37:56.978Z,840.40
2018-11-26T09:38:56.844Z,840.44
2018-11-26T09:39:56.713Z,840.41
2018-11-26T09:40:56.579Z,840.39
2018-11-26T09:41:56.447Z,840.41
2018-11-26T09:42:56.321Z,840.40
2018-11-26T09:43:56.181Z,840.37
2018-11-26T09:44:56.049Z,840.39
2018-11-26T09:45:55.912Z,840.36
2018-11-26T09:46:55.782Z,840.36
2018-11-26T09:47:55.648Z,840.34
2018-11-26T09:48:55.517Z,840.34
2018-11-26T09:49:55.383Z,840.33
2018-11-26T09:50:55.256Z,840.31
2018-11-26T09:51:55.122Z,840.35
2018-11-26T09:52:55.881Z,840.36
2018-11-26T09:53:54.855Z,840.39
2018-11-26T09:54:54.719Z,840.35
2018-11-26T09:55:54.589Z,840.35
2018-11-26T09:56:54.457Z,840.36
2018-11-26T09:57:54.323Z,840.37
2018-11-26T09:58:54.195Z,840.34
2018-11-26T09:59:54.059Z,840.33
2018-11-26T10:00:53.928Z,840.30
2018-11-26T10:01:53.836Z,840.31
2018-11-26T10:02:53.664Z,840.31
2018-11-26T10:03:53.528Z,840.32
2018-11-26T10:04:53.432Z,840.33
2018-11-26T10:05:53.279Z,840.35
2018-11-26T10:06:53.135Z,840.31
2018-11-26T10:07:53.006Z,840.40
2018-11-26T10:08:52.866Z,840.38
2018-11-26T10:09:52.735Z,840.38
2018-11-26T10:10:52.602Z,840.37
2018-11-26T10:11:52.474Z,840.31
2018-11-26T10:12:52.338Z,840.32
2018-11-26T10:13:52.207Z,840.33
2018-11-26T10:14:52.073Z,840.36
2018-11-26T10:15:51.942Z,840.36
2018-11-26T10:16:51.808Z,840.35
2018-11-26T10:17:51.677Z,840.38
2018-11-26T10:18:51.548Z,840.32
2018-11-26T10:19:51.420Z,840.35
2018-11-26T10:20:51.281Z,840.31
2018-11-26T10:21:51.151Z,840.29
2018-11-26T10:22:51.016Z,840.32
2018-11-26T10:23:50.887Z,840.34
2018-11-26T10:24:50.756Z,840.32
2018-11-26T10:25:50.620Z,840.32
2018-11-26T10:26:50.489Z,840.31
2018-11-26T10:27:50.359Z,840.29
2018-11-26T10:28:50.228Z,840.29
2018-11-26T10:29:50.101Z,840.29
2018-11-26T10:30:49.968Z,840.25
2018-11-26T10:31:49.845Z,840.27
2018-11-26T10:32:49.710Z,840.28
2018-11-26T10:33:49.576Z,840.26
2018-11-26T10:34:49.453Z,840.26
2018-11-26T10:35:49.317Z,840.25
2018-11-26T10:36:49.186Z,840.23
2018-11-26T10:37:49.062Z,840.27
2018-11-26T10:38:48.930Z,840.31
2018-11-26T10:39:48.799Z,840.27
2018-11-26T10:40:48.678Z,840.30
2018-11-26T10:41:48.541Z,840.29
2018-11-26T10:42:48.411Z,840.27
2018-11-26T10:43:48.285Z,840.28
2018-11-26T10:44:48.156Z,840.24
2018-11-26T10:45:48.028Z,840.25
2018-11-26T10:46:47.901Z,840.23
2018-11-26T10:47:47.777Z,840.23
2018-11-26T10:48:47.643Z,840.25
2018-11-26T10:49:47.512Z,840.34
2018-11-26T10:50:47.384Z,840.35
2018-11-26T10:51:47.257Z,840.30
2018-11-26T10:52:47.136Z,840.31
2018-11-26T10:53:47.003Z,840.29
2018-11-26T10:54:46.881Z,840.32
2018-11-26T10:55:46.742Z,840.32
2018-11-26T10:56:46.613Z,840.32
2018-11-26T10:57:46.483Z,840.37
2018-11-26T10:58:46.352Z,840.40
2018-11-26T10:59:46.230Z,840.38
2018-11-26T11:00:46.098Z,840.36
2018-11-26T11:01:45.963Z,840.35
2018-11-26T11:02:45.834Z,840.34
2018-11-26T11:03:45.703Z,840.33
2018-11-26T11:04:47.710Z,840.36
2018-11-26T11:05:45.442Z,840.34
2018-11-26T11:06:45.312Z,840.44
2018-11-26T11:07:45.180Z,840.37
2018-11-26T11:08:45.052Z,840.36
2018-11-26T11:09:44.919Z,840.41
2018-11-26T11:10:44.789Z,840.35
2018-11-26T11:11:44.659Z,840.36
2018-11-26T11:12:44.527Z,840.38
2018-11-26T11:13:44.397Z,840.37
2018-11-26T11:14:44.265Z,840.41
2018-11-26T11:15:44.134Z,840.44
2018-11-26T11:16:44.002Z,840.39
2018-11-26T11:17:43.871Z,840.40
2018-11-26T11:18:43.740Z,840.40
2018-11-26T11:19:43.609Z,840.38
2018-11-26T11:20:43.478Z,840.43
2018-11-26T11:21:43.345Z,840.47
2018-11-26T11:22:43.213Z,840.45
2018-11-26T11:23:43.084Z,840.44
2018-11-26T11:24:42.950Z,840.46
2018-11-26T11:25:42.816Z,840.45
2018-11-26T11:26:42.686Z,840.47
2018-11-26T11:27:45.094Z,840.47
2018-11-26T11:28:42.421Z,840.45
2018-11-26T11:29:42.290Z,840.42
2018-11-26T11:30:42.159Z,840.49
2018-11-26T11:31:42.026Z,840.44
2018-11-26T11:32:41.895Z,840.45
2018-11-26T11:33:41.761Z,840.48
2018-11-26T11:34:41.630Z,840.44
2018-11-26T11:35:41.498Z,840.43
2018-11-26T11:36:41.368Z,840.43
2018-11-26T11:37:41.230Z,840.43
2018-11-26T11:38:41.101Z,840.39
2018-11-26T11:39:40.968Z,840.42
2018-11-26T11:40:40.837Z,840.37
2018-11-26T11:41:40.704Z,840.36
2018-11-26T11:42:40.572Z,840.37
2018-11-26T11:43:40.440Z,840.41
2018-11-26T11:44:40.306Z,840.39
2018-11-26T11:45:40.176Z,840.35
2018-11-26T11:46:40.042Z,840.37
2018-11-26T11:47:39.910Z,840.40
2018-11-26T11:48:39.778Z,840.34
2018-11-26T11:49:39.644Z,840.33
2018-11-26T11:50:39.514Z,840.37
2018-11-26T11:51:39.381Z,840.38
2018-11-26T11:52:39.248Z,840.35
2018-11-26T11:53:39.116Z,840.34
2018-11-26T11:54:38.991Z,840.34
2018-11-26T11:55:38.854Z,840.37
2018-11-26T11:56:38.723Z,840.37
2018-11-26T11:57:38.589Z,840.37
2018-11-26T11:58:38.456Z,840.34
2018-11-26T11:59:38.322Z,840.33
2018-11-26T12:00:38.190Z,840.33
2018-11-26T12:01:38.055Z,840.35
2018-11-26T12:02:37.925Z,840.35
2018-11-26T12:03:37.793Z,840.37
2018-11-26T12:04:37.661Z,840.35
2018-11-26T12:05:37.531Z,840.31
2018-11-26T12:06:37.395Z,840.35
2018-11-26T12:07:37.262Z,840.38
2018-11-26T12:08:37.131Z,840.36
2018-11-26T12:09:37.000Z,840.38
2018-11-26T12:10:36.868Z,840.40
2018-11-26T12:11:36.735Z,840.38
2018-11-26T12:12:36.603Z,840.38
2018-11-26T12:13:36.469Z,840.38
2018-11-26T12:14:36.340Z,840.41
2018-11-26T12:15:36.208Z,840.43
2018-11-26T12:16:36.074Z,840.38
2018-11-26T12:17:35.945Z,840.40
2018-11-26T12:18:35.810Z,840.38
2018-11-26T12:19:35.679Z,840.40
2018-11-26T12:20:35.548Z,840.42
2018-11-26T12:21:35.413Z,840.44
2018-11-26T12:22:35.282Z,840.43
2018-11-26T12:23:35.152Z,840.46
2018-11-26T12:24:35.023Z,840.44
2018-11-26T12:25:34.887Z,840.43
2018-11-26T12:26:34.757Z,840.40